createdAt,value
2018-12-21T00:00:39.935Z,69.30
2018-12-21T00:03:08.293Z,72.30
2018-12-21T00:05:36.666Z,69.40
2018-12-21T00:08:05.116Z,77.83
2018-12-21T00:10:33.491Z,75.47
2018-12-21T00:13:01.851Z,68.00
2018-12-21T00:15:30.323Z,67.40
2018-12-21T00:17:58.679Z,74.87
2018-12-21T00:20:27.043Z,69.43
2018-12-21T00:22:55.408Z,77.53
2018-12-21T00:25:23.764Z,75.37
2018-12-21T00:27:52.094Z,67.40
2018-12-21T00:30:22.704Z,71.90
2018-12-21T00:32:56.808Z,71.93
2018-12-21T00:35:30.623Z,70.37
2018-12-21T00:38:05.631Z,67.40
2018-12-21T00:40:39.770Z,68.93
2018-12-21T00:43:43.989Z,69.93
2018-12-21T00:46:16.555Z,71.53
2018-12-21T00:48:45.122Z,71.10
2018-12-21T00:51:13.486Z,73.27
2018-12-21T00:53:41.857Z,65.63
2018-12-21T00:56:10.192Z,73.50
2018-12-21T00:58:38.539Z,67.87
2018-12-21T01:01:07.201Z,66.90
2018-12-21T01:03:35.640Z,67.57
2018-12-21T01:06:03.988Z,70.60
2018-12-21T01:08:32.357Z,69.47
2018-12-21T01:11:00.825Z,76.20
2018-12-21T01:13:29.373Z,74.10
2018-12-21T01:15:57.727Z,75.33
2018-12-21T01:18:26.189Z,79.27
2018-12-21T01:20:54.547Z,85.80
2018-12-21T01:23:22.875Z,73.57
2018-12-21T01:25:53.057Z,72.67
2018-12-21T01:28:21.699Z,72.27
2018-12-21T01:30:50.081Z,75.67
2018-12-21T01:33:18.431Z,82.70
2018-12-21T01:35:46.948Z,70.53
2018-12-21T01:38:15.307Z,84.23
2018-12-21T01:40:43.627Z,87.63
2018-12-21T01:43:12.015Z,88.00
2018-12-21T01:45:40.370Z,87.73
2018-12-21T01:48:08.711Z,71.50
2018-12-21T01:50:37.068Z,75.47
2018-12-21T01:53:05.441Z,81.90
2018-12-21T01:55:33.771Z,82.07
2018-12-21T01:58:02.158Z,74.63
2018-12-21T02:00:30.657Z,83.13
2018-12-21T02:02:59.154Z,67.67
2018-12-21T02:05:27.487Z,73.43
2018-12-21T02:07:55.835Z,65.87
2018-12-21T02:10:24.197Z,73.87
2018-12-21T02:12:52.566Z,76.70
2018-12-21T02:15:20.943Z,63.63
2018-12-21T02:17:49.257Z,59.30
2018-12-21T02:20:17.723Z,64.47
2018-12-21T02:22:46.103Z,67.03
2018-12-21T02:25:14.570Z,62.37
2018-12-21T02:27:42.942Z,56.67
2018-12-21T02:30:11.526Z,51.17
2018-12-21T02:32:39.892Z,59.50
2018-12-21T02:35:08.350Z,59.93
2018-12-21T02:37:36.724Z,62.00
2018-12-21T02:40:05.603Z,58.50
2018-12-21T02:42:33.978Z,61.40
2018-12-21T02:45:02.344Z,68.80
2018-12-21T02:47:30.789Z,59.37
2018-12-21T02:49:59.147Z,59.20
2018-12-21T02:52:27.880Z,53.80
2018-12-21T02:54:56.216Z,56.93
2018-12-21T02:57:24.617Z,64.50
2018-12-21T02:59:53.024Z,68.23
2018-12-21T03:02:21.388Z,66.37
2018-12-21T03:04:49.871Z,64.30
2018-12-21T03:07:18.275Z,55.77
2018-12-21T03:09:46.759Z,53.37
2018-12-21T03:12:15.150Z,57.57
2018-12-21T03:14:43.511Z,58.87
2018-12-21T03:17:11.861Z,65.33
2018-12-21T03:19:40.190Z,62.37
2018-12-21T03:22:14.602Z,67.40
2018-12-21T03:24:38.995Z,64.20
2018-12-21T03:27:07.299Z,68.63
2018-12-21T03:29:35.683Z,71.00
2018-12-21T03:32:04.144Z,68.23
2018-12-21T03:34:32.508Z,68.00
2018-12-21T03:37:00.898Z,65.37
2018-12-21T03:39:29.247Z,58.63
2018-12-21T03:41:57.602Z,62.37
2018-12-21T03:44:25.919Z,62.40
2018-12-21T03:46:54.303Z,51.50
2018-12-21T03:49:22.643Z,63.47
2018-12-21T03:51:51.011Z,55.83
2018-12-21T03:54:19.387Z,52.47
2018-12-21T03:56:47.732Z,53.47
2018-12-21T03:59:16.055Z,61.30
2018-12-21T04:01:44.546Z,57.73
2018-12-21T04:04:12.981Z,64.50
2018-12-21T04:06:41.323Z,58.97
2018-12-21T04:09:09.666Z,56.90
2018-12-21T04:11:38.016Z,57.17
2018-12-21T04:14:06.372Z,57.63
2018-12-21T04:16:34.708Z,53.37
2018-12-21T04:19:03.069Z,62.10
2018-12-21T04:21:31.398Z,54.60
2018-12-21T04:23:59.760Z,54.30
2018-12-21T04:26:28.122Z,49.43
2018-12-21T04:28:56.570Z,54.40
2018-12-21T04:31:24.896Z,52.10
2018-12-21T04:33:53.288Z,47.63
2018-12-21T04:36:21.627Z,42.07
2018-12-21T04:38:50.028Z,40.50
2018-12-21T04:41:18.365Z,36.17
2018-12-21T04:43:46.920Z,41.57
2018-12-21T04:46:15.293Z,36.30
2018-12-21T04:48:43.695Z,35.27
2018-12-21T04:51:12.040Z,36.87
2018-12-21T04:53:40.511Z,35.87
2018-12-21T04:56:08.858Z,33.93
2018-12-21T04:58:37.199Z,31.67
2018-12-21T05:01:05.540Z,34.40
2018-12-21T05:03:33.898Z,27.60
2018-12-21T05:06:02.238Z,30.10
2018-12-21T05:08:30.715Z,28.57
2018-12-21T05:10:59.070Z,31.20
2018-12-21T05:13:27.440Z,25.77
2018-12-21T05:15:55.885Z,27.27
2018-12-21T05:18:24.232Z,25.83
2018-12-21T05:20:52.580Z,24.60
2018-12-21T05:23:20.911Z,32.07
2018-12-21T05:25:49.359Z,26.83
2018-12-21T05:28:17.718Z,29.70
2018-12-21T05:30:46.084Z,24.57
2018-12-21T05:33:14.442Z,26.17
2018-12-21T05:35:42.803Z,23.77
2018-12-21T05:38:11.121Z,26.20
2018-12-21T05:40:39.459Z,28.70
2018-12-21T05:43:07.816Z,25.13
2018-12-21T05:45:36.197Z,26.37
2018-12-21T05:48:04.551Z,22.97
2018-12-21T05:50:32.923Z,21.00
2018-12-21T05:53:01.317Z,25.23
2018-12-21T05:55:29.679Z,22.77
2018-12-21T05:57:58.058Z,24.03
2018-12-21T06:00:26.474Z,24.93
2018-12-21T06:02:54.832Z,27.37
2018-12-21T06:05:23.177Z,25.60
2018-12-21T06:07:51.542Z,23.03
2018-12-21T06:10:19.884Z,27.33
2018-12-21T06:12:48.220Z,23.13
2018-12-21T06:15:16.574Z,23.90
2018-12-21T06:17:45.019Z,24.73
2018-12-21T06:20:14.492Z,27.23
2018-12-21T06:22:42.970Z,24.17
2018-12-21T06:25:11.342Z,29.20
2018-12-21T06:27:39.712Z,30.77
2018-12-21T06:30:08.455Z,26.20
2018-12-21T06:32:36.826Z,24.67
2018-12-21T06:35:05.320Z,26.27
2018-12-21T06:37:33.741Z,27.20
2018-12-21T06:40:02.063Z,21.90
2018-12-21T06:42:30.602Z,22.47
2018-12-21T06:44:58.972Z,27.53
2018-12-21T06:47:27.351Z,21.90
2018-12-21T06:49:55.702Z,23.90
2018-12-21T06:52:24.047Z,25.37
2018-12-21T06:54:52.401Z,22.50
2018-12-21T06:57:20.743Z,22.07
2018-12-21T06:59:49.082Z,20.67
2018-12-21T07:02:17.515Z,18.53
2018-12-21T07:04:45.930Z,19.50
2018-12-21T07:07:14.275Z,21.77
2018-12-21T07:09:42.688Z,22.93
2018-12-21T07:12:11.007Z,17.03
2018-12-21T07:14:39.509Z,19.10
2018-12-21T07:17:08.147Z,23.03
2018-12-21T07:19:36.509Z,16.73
2018-12-21T07:22:04.933Z,18.60
2018-12-21T07:24:33.670Z,22.20
2018-12-21T07:27:03.429Z,26.00
2018-12-21T07:29:31.986Z,20.53
2018-12-21T07:32:01.299Z,22.10
2018-12-21T07:34:29.630Z,17.10
2018-12-21T07:36:57.971Z,22.83
2018-12-21T07:39:26.314Z,20.10
2018-12-21T07:41:54.727Z,24.10
2018-12-21T07:44:23.055Z,20.37
2018-12-21T07:46:51.420Z,20.20
2018-12-21T07:49:19.769Z,17.23
2018-12-21T07:51:48.073Z,14.53
2018-12-21T07:54:16.451Z,19.03
2018-12-21T07:56:44.799Z,15.63
2018-12-21T07:59:13.142Z,22.00
2018-12-21T08:01:41.472Z,18.03
2018-12-21T08:04:09.860Z,18.20
2018-12-21T08:06:38.176Z,17.23
2018-12-21T08:09:07.630Z,15.63
2018-12-21T08:11:35.964Z,12.97
2018-12-21T08:14:04.436Z,16.30
2018-12-21T08:16:32.745Z,11.73
2018-12-21T08:19:01.111Z,20.63
2018-12-21T08:21:29.459Z,20.17
2018-12-21T08:23:57.885Z,12.57
2018-12-21T08:26:26.221Z,10.87
2018-12-21T08:28:54.592Z,13.03
2018-12-21T08:31:22.903Z,14.97
2018-12-21T08:33:51.254Z,12.63
2018-12-21T08:36:19.557Z,11.43
2018-12-21T08:38:47.922Z,12.43
2018-12-21T08:41:16.357Z,13.67
2018-12-21T08:43:44.715Z,14.67
2018-12-21T08:46:13.161Z,14.40
2018-12-21T08:48:41.784Z,14.47
2018-12-21T08:51:10.316Z,14.67
2018-12-21T08:53:38.659Z,15.60
2018-12-21T08:56:07.066Z,15.40
2018-12-21T08:58:36.847Z,12.30
2018-12-21T09:01:05.351Z,12.07
2018-12-21T09:03:33.729Z,14.30
2018-12-21T09:06:02.127Z,10.50
2018-12-21T09:08:30.468Z,11.03
2018-12-21T09:10:58.935Z,11.73
2018-12-21T09:13:27.308Z,15.93
2018-12-21T09:15:55.661Z,17.27
2018-12-21T09:18:24.009Z,12.27
2018-12-21T09:20:52.342Z,12.00
2018-12-21T09:23:20.679Z,13.60
2018-12-21T09:25:49.023Z,11.23
2018-12-21T09:28:17.361Z,15.17
2018-12-21T09:30:45.848Z,11.67
2018-12-21T09:33:14.204Z,10.20
2018-12-21T09:35:42.655Z,13.23
2018-12-21T09:38:11.053Z,15.30
2018-12-21T09:40:39.614Z,15.20
2018-12-21T09:43:07.999Z,11.60
2018-12-21T09:45:36.352Z,9.67
2018-12-21T09:48:04.716Z,6.83
2018-12-21T09:50:33.127Z,7.60
2018-12-21T09:53:01.479Z,8.83
2018-12-21T09:55:29.807Z,10.23
2018-12-21T09:57:58.140Z,12.70
2018-12-21T10:00:26.509Z,11.70
2018-12-21T10:02:54.828Z,8.07
2018-12-21T10:05:23.157Z,9.27
2018-12-21T10:07:51.522Z,10.10
2018-12-21T10:10:19.883Z,10.57
2018-12-21T10:12:48.254Z,13.67
2018-12-21T10:15:16.645Z,14.70
2018-12-21T10:17:45.008Z,9.57
2018-12-21T10:20:13.416Z,10.93
2018-12-21T10:22:41.771Z,11.63
2018-12-21T10:25:10.215Z,11.43
2018-12-21T10:27:38.559Z,12.00
2018-12-21T10:30:09.372Z,12.63
2018-12-21T10:32:37.846Z,13.80
2018-12-21T10:35:06.332Z,12.10
2018-12-21T10:37:34.693Z,14.13
2018-12-21T10:40:03.195Z,9.90
2018-12-21T10:42:31.620Z,18.07
2018-12-21T10:44:59.991Z,12.47
2018-12-21T10:47:29.081Z,11.47
2018-12-21T10:49:57.467Z,12.60
2018-12-21T10:52:25.901Z,11.60
2018-12-21T10:54:54.242Z,12.40
2018-12-21T10:57:22.597Z,16.53
2018-12-21T10:59:50.952Z,23.90
2018-12-21T11:02:19.315Z,16.90
2018-12-21T11:04:48.795Z,11.93
2018-12-21T11:07:17.275Z,15.70
2018-12-21T11:09:45.646Z,15.70
2018-12-21T11:12:13.986Z,18.87
2018-12-21T11:14:42.362Z,15.63
2018-12-21T11:17:10.687Z,16.17
2018-12-21T11:19:39.057Z,16.93
2018-12-21T11:22:07.424Z,10.87
2018-12-21T11:24:35.935Z,17.70
2018-12-21T11:27:04.462Z,13.57
2018-12-21T11:29:32.815Z,11.77
2018-12-21T11:32:01.200Z,20.07
2018-12-21T11:34:29.910Z,14.60
2018-12-21T11:36:58.331Z,11.67
2018-12-21T11:39:26.694Z,9.93
2018-12-21T11:41:55.031Z,13.43
2018-12-21T11:44:23.555Z,12.30
2018-12-21T11:46:51.944Z,15.53
2018-12-21T11:49:20.360Z,13.80
2018-12-21T11:51:48.730Z,14.53
2018-12-21T11:54:17.718Z,16.20
2018-12-21T11:56:46.083Z,13.17
2018-12-21T11:59:14.427Z,9.90
2018-12-21T12:01:42.779Z,13.47
2018-12-21T12:04:11.171Z,8.67
2018-12-21T12:06:39.628Z,10.10
2018-12-21T12:09:08.456Z,12.17
2018-12-21T12:11:36.832Z,14.30
2018-12-21T12:14:05.287Z,12.17
2018-12-21T12:16:33.603Z,8.27
2018-12-21T12:19:01.950Z,9.10
2018-12-21T12:21:30.438Z,8.97
2018-12-21T12:23:58.924Z,9.80
2018-12-21T12:26:27.259Z,10.57
2018-12-21T12:28:55.605Z,8.10
2018-12-21T12:31:24.035Z,9.67
2018-12-21T12:33:52.459Z,7.70
2018-12-21T12:36:20.856Z,10.23
2018-12-21T12:38:49.234Z,6.17
2018-12-21T12:41:17.619Z,6.13
2018-12-21T12:43:46.072Z,8.33
2018-12-21T12:46:14.448Z,10.90
2018-12-21T12:48:42.864Z,5.37
2018-12-21T12:51:11.203Z,5.53
2018-12-21T12:53:39.558Z,6.03
2018-12-21T12:56:08.003Z,8.00
2018-12-21T12:58:36.359Z,6.43
2018-12-21T13:01:04.791Z,7.67
2018-12-21T13:03:33.168Z,5.97
2018-12-21T13:06:01.537Z,7.30
2018-12-21T13:08:29.867Z,8.80
2018-12-21T13:10:58.231Z,4.87
2018-12-21T13:13:26.551Z,5.13
2018-12-21T13:15:54.919Z,6.80
2018-12-21T13:18:23.283Z,6.87
2018-12-21T13:20:51.631Z,4.57
2018-12-21T13:23:19.994Z,5.20
2018-12-21T13:25:48.367Z,6.10
2018-12-21T13:28:16.713Z,7.67
2018-12-21T13:30:45.160Z,6.60
2018-12-21T13:33:13.640Z,5.07
2018-12-21T13:35:42.019Z,4.63
2018-12-21T13:38:10.382Z,4.27
2018-12-21T13:40:38.755Z,5.17
2018-12-21T13:43:07.151Z,3.23
2018-12-21T13:45:35.515Z,4.87
2018-12-21T13:48:03.955Z,5.07
2018-12-21T13:50:32.419Z,3.83
2018-12-21T13:53:00.812Z,2.63
2018-12-21T13:55:29.154Z,3.50
2018-12-21T13:57:57.640Z,3.40
2018-12-21T14:00:26.016Z,2.50
2018-12-21T14:02:54.371Z,5.47
2018-12-21T14:05:22.755Z,2.53
2018-12-21T14:07:51.109Z,4.70
2018-12-21T14:10:19.531Z,4.03
2018-12-21T14:12:47.906Z,2.60
2018-12-21T14:15:16.261Z,2.83
2018-12-21T14:17:44.602Z,4.13
2018-12-21T14:20:13.111Z,5.33
2018-12-21T14:22:41.443Z,4.80
2018-12-21T14:25:09.946Z,3.87
2018-12-21T14:27:38.371Z,3.77
2018-12-21T14:30:08.241Z,4.83
2018-12-21T14:32:37.110Z,5.07
2018-12-21T14:35:06.680Z,5.20
2018-12-21T14:37:35.114Z,9.03
2018-12-21T14:40:03.875Z,6.97
2018-12-21T14:42:32.342Z,5.43
2018-12-21T14:45:00.658Z,3.77
2018-12-21T14:47:29.031Z,3.40
2018-12-21T14:49:57.507Z,3.33
2018-12-21T14:53:29.871Z,3.40
2018-12-21T14:55:59.689Z,4.57
2018-12-21T14:58:28.553Z,5.10
2018-12-21T15:00:56.964Z,5.70
2018-12-21T15:03:25.347Z,3.93
2018-12-21T15:05:53.695Z,4.53
2018-12-21T15:08:22.088Z,3.77
2018-12-21T15:10:50.522Z,4.67
2018-12-21T15:13:18.899Z,4.20
2018-12-21T15:15:47.251Z,4.33
2018-12-21T15:18:15.627Z,5.30
2018-12-21T15:20:44.036Z,5.47
2018-12-21T15:23:12.414Z,6.57
2018-12-21T15:25:46.043Z,6.93
2018-12-21T15:28:11.232Z,6.10
2018-12-21T15:30:39.663Z,8.27
2018-12-21T15:33:08.011Z,7.73
2018-12-21T15:35:36.359Z,7.60
2018-12-21T15:38:04.816Z,6.93
2018-12-21T15:40:33.192Z,7.87
2018-12-21T15:43:01.512Z,9.97
2018-12-21T15:45:29.951Z,8.13
2018-12-21T15:47:58.298Z,7.37
2018-12-21T15:50:26.722Z,8.73
2018-12-21T15:52:55.047Z,7.10
2018-12-21T15:55:23.527Z,7.30
2018-12-21T15:57:51.870Z,8.20
2018-12-21T16:00:20.383Z,8.53
2018-12-21T16:02:51.799Z,10.63
2018-12-21T16:05:20.470Z,10.63
2018-12-21T16:07:48.790Z,12.53
2018-12-21T16:10:17.126Z,11.43
2018-12-21T16:12:45.503Z,14.77
2018-12-21T16:15:13.839Z,19.27
2018-12-21T16:17:42.217Z,20.37
2018-12-21T16:20:13.314Z,25.77
2018-12-21T16:22:42.488Z,31.33
2018-12-21T16:25:11.343Z,36.67
2018-12-21T16:27:40.025Z,39.50
2018-12-21T16:30:11.232Z,36.13
2018-12-21T16:32:39.667Z,39.90
2018-12-21T16:35:08.318Z,47.77
2018-12-21T16:37:36.693Z,53.53
2018-12-21T16:40:06.387Z,60.53
2018-12-21T16:42:34.732Z,74.33
2018-12-21T16:45:03.193Z,73.23
2018-12-21T16:47:31.533Z,71.20
2018-12-21T16:49:59.982Z,75.60
2018-12-21T16:52:28.347Z,84.63
2018-12-21T16:54:56.686Z,73.87
2018-12-21T16:57:25.067Z,73.60
2018-12-21T16:59:53.443Z,67.87
2018-12-21T17:02:21.776Z,58.93
2018-12-21T17:04:50.279Z,44.07
2018-12-21T17:07:18.731Z,39.10
2018-12-21T17:09:47.107Z,34.67
2018-12-21T17:12:15.458Z,33.10
2018-12-21T17:14:43.808Z,31.10
2018-12-21T17:17:12.181Z,28.17
2018-12-21T17:19:40.536Z,25.83
2018-12-21T17:22:08.903Z,23.77
2018-12-21T17:24:37.258Z,26.43
2018-12-21T17:27:05.595Z,24.93
2018-12-21T17:29:33.959Z,22.53
2018-12-21T17:32:02.274Z,20.27
2018-12-21T17:34:31.535Z,20.20
2018-12-21T17:36:59.870Z,20.37
2018-12-21T17:39:28.209Z,17.57
2018-12-21T17:41:56.702Z,18.53
2018-12-21T17:44:25.071Z,13.40
2018-12-21T17:46:53.413Z,8.43
2018-12-21T17:49:21.819Z,7.50
2018-12-21T17:51:50.144Z,13.37
2018-12-21T17:54:18.489Z,10.77
2018-12-21T17:56:46.859Z,15.87
2018-12-21T17:59:15.191Z,9.37
2018-12-21T18:01:43.573Z,9.50
2018-12-21T18:04:18.607Z,10.23
2018-12-21T18:06:46.943Z,9.67
2018-12-21T18:09:15.590Z,10.10
2018-12-21T18:11:43.924Z,6.67
2018-12-21T18:14:12.414Z,18.07
2018-12-21T18:16:40.767Z,8.20
2018-12-21T18:19:09.107Z,7.43
2018-12-21T18:21:44.547Z,10.40
2018-12-21T18:24:12.960Z,14.40
2018-12-21T18:26:42.178Z,15.23
2018-12-21T18:29:10.523Z,10.50
2018-12-21T18:31:45.011Z,8.33
2018-12-21T18:34:17.442Z,14.67
2018-12-21T18:36:45.880Z,15.00
2018-12-21T18:39:14.254Z,16.33
2018-12-21T18:41:42.660Z,16.50
2018-12-21T18:44:11.112Z,16.20
2018-12-21T18:46:39.503Z,14.23
2018-12-21T18:49:07.846Z,15.30
2018-12-21T18:51:36.287Z,14.13
2018-12-21T18:54:04.650Z,17.90
2018-12-21T18:56:35.515Z,11.43
2018-12-21T18:59:04.039Z,22.00
2018-12-21T19:01:32.374Z,17.03
2018-12-21T19:04:02.813Z,18.57
2018-12-21T19:06:32.119Z,15.33
2018-12-21T19:09:01.564Z,17.10
2018-12-21T19:11:30.866Z,16.80
2018-12-21T19:14:00.071Z,18.00
2018-12-21T19:16:28.980Z,24.40
2018-12-21T19:18:58.457Z,20.50
2018-12-21T19:21:27.716Z,13.60
2018-12-21T19:23:56.826Z,20.33
2018-12-21T19:26:25.204Z,20.97
2018-12-21T19:28:53.512Z,23.57
2018-12-21T19:31:21.886Z,19.80
2018-12-21T19:33:50.227Z,16.60
2018-12-21T19:36:18.590Z,22.87
2018-12-21T19:38:46.983Z,15.47
2018-12-21T19:41:15.312Z,19.50
2018-12-21T19:43:43.638Z,18.73
2018-12-21T19:46:11.988Z,18.83
2018-12-21T19:48:40.461Z,17.00
2018-12-21T19:51:08.862Z,19.00
2018-12-21T19:53:37.284Z,18.23
2018-12-21T19:56:21.134Z,15.23
2018-12-21T19:58:49.505Z,24.70
2018-12-21T20:01:17.930Z,21.63
2018-12-21T20:03:46.283Z,11.77
2018-12-21T20:06:14.674Z,12.70
2018-12-21T20:08:43.102Z,19.90
2018-12-21T20:11:11.475Z,14.27
2018-12-21T20:13:39.887Z,16.40
2018-12-21T20:16:08.218Z,13.20
2018-12-21T20:18:36.664Z,14.93
2018-12-21T20:21:05.084Z,13.67
2018-12-21T20:23:33.438Z,10.50
2018-12-21T20:26:01.858Z,11.33
2018-12-21T20:28:30.190Z,14.83
2018-12-21T20:30:58.544Z,7.00
2018-12-21T20:33:27.323Z,8.37
2018-12-21T20:35:55.709Z,8.97
2018-12-21T20:38:24.103Z,7.73
2018-12-21T20:40:52.712Z,9.03
2018-12-21T20:43:21.058Z,8.23
2018-12-21T20:45:49.376Z,6.20
2018-12-21T20:48:17.729Z,8.43
2018-12-21T20:50:46.153Z,8.53
2018-12-21T20:53:14.634Z,5.97
2018-12-21T20:55:43.156Z,8.00
2018-12-21T20:58:20.470Z,6.87
2018-12-21T21:00:48.803Z,10.00
2018-12-21T21:03:17.155Z,11.10
2018-12-21T21:05:45.479Z,9.03
2018-12-21T21:08:13.852Z,11.83
2018-12-21T21:10:42.183Z,11.67
2018-12-21T21:13:19.067Z,10.13
2018-12-21T21:15:40.895Z,9.10
2018-12-21T21:18:09.263Z,15.13
2018-12-21T21:20:37.587Z,9.97
2018-12-21T21:23:05.999Z,7.57
2018-12-21T21:25:34.376Z,9.83
2018-12-21T21:28:02.706Z,10.13
2018-12-21T21:30:34.007Z,12.17
2018-12-21T21:33:02.347Z,15.80
2018-12-21T21:35:31.719Z,9.23
2018-12-21T21:38:02.407Z,11.67
2018-12-21T21:40:32.701Z,10.03
2018-12-21T21:43:02.030Z,12.53
2018-12-21T21:45:33.241Z,11.23
2018-12-21T21:48:05.047Z,14.17
2018-12-21T21:50:34.022Z,14.03
2018-12-21T21:53:02.435Z,8.23
2018-12-21T21:55:30.776Z,10.27
2018-12-21T21:57:59.127Z,8.33
2018-12-21T22:00:27.675Z,7.13
2018-12-21T22:02:56.027Z,7.50
2018-12-21T22:05:24.368Z,6.60
2018-12-21T22:07:52.708Z,6.13
2018-12-21T22:10:21.059Z,9.47
2018-12-21T22:12:49.395Z,8.40
2018-12-21T22:15:17.727Z,7.60
2018-12-21T22:17:46.055Z,4.73
2018-12-21T22:20:14.411Z,8.97
2018-12-21T22:22:42.727Z,6.97
2018-12-21T22:25:11.088Z,7.33
2018-12-21T22:27:47.762Z,3.97
2018-12-21T22:30:11.270Z,10.03
2018-12-21T22:32:39.587Z,6.63
2018-12-21T22:35:08.470Z,5.13
2018-12-21T22:37:36.774Z,7.17
2018-12-21T22:40:05.843Z,5.97
2018-12-21T22:42:34.234Z,6.73
2018-12-21T22:45:02.574Z,6.03
2018-12-21T22:47:30.920Z,5.70
2018-12-21T22:49:59.274Z,5.83
2018-12-21T22:52:27.610Z,3.70
2018-12-21T22:54:55.968Z,5.07
2018-12-21T22:57:24.291Z,4.47
2018-12-21T22:59:52.633Z,2.57
2018-12-21T23:02:20.994Z,3.97
2018-12-21T23:04:49.343Z,3.77
2018-12-21T23:07:17.684Z,5.00
2018-12-21T23:09:45.995Z,3.63
2018-12-21T23:12:14.351Z,3.50
2018-12-21T23:14:42.683Z,8.33
2018-12-21T23:17:11.002Z,5.00
2018-12-21T23:19:39.374Z,10.50
2018-12-21T23:22:07.703Z,7.00
2018-12-21T23:24:36.014Z,7.37
2018-12-21T23:27:04.359Z,11.90
2018-12-21T23:29:32.670Z,7.03
2018-12-21T23:32:01.039Z,8.77
2018-12-21T23:34:29.376Z,5.93
2018-12-21T23:36:57.703Z,4.73
2018-12-21T23:39:26.034Z,5.00
2018-12-21T23:41:54.391Z,7.80
2018-12-21T23:44:22.723Z,7.60
2018-12-21T23:46:51.060Z,7.40
2018-12-21T23:49:19.421Z,10.37
2018-12-21T23:51:47.750Z,7.20
2018-12-21T23:54:16.114Z,9.17
2018-12-21T23:56:44.470Z,15.80
2018-12-21T23:59:12.794Z,12.33
